Flight Track Log - Related Links

Times and Time Zones

All times are in EDT time to prevent confusion due to time zone crossing. See the SWA1910 flight status page for this flight to view local times or setup timezone preferences in your user account.

Time Position Orientation Groundspeed Altitude Reporting Facility
EDT Latitude Longitude Course Direction KTS MPH feet Rate Location/Type
Tue 08:30:18 PM 39.1333 -76.6167 180° South 196 226 2,400  Level Potomac TRACON
Tue 08:31:17 PM 39.0833 -76.5667 142° Southeast 256 295 4,400 2,650 Climbing Potomac TRACON
Tue 08:32:18 PM 39.0333 -76.5000 134° Southeast 291 335 7,700 3,250 Climbing Potomac TRACON
Tue 08:33:17 PM 38.9500 -76.4333 148° Southeast 329 379 10,900 1,902 Climbing Potomac TRACON
Tue 08:35:00 PM 38.6559 -76.9118 180° South  Level Estimated
Tue 08:35:43 PM 38.7572 -76.5767 210° Southwest 334 384 14,200  Level Washington Center
Tue 08:36:43 PM 38.6711 -76.6419 211° Southwest 349 402 17,300 3,050 Climbing Washington Center
Tue 08:37:43 PM 38.5831 -76.7072 210° Southwest 362 417 20,300 2,800 Climbing Washington Center
Tue 08:38:43 PM 38.4767 -76.7136 183° South 367 422 22,900 2,550 Climbing Washington Center
Tue 08:39:43 PM 38.3578 -76.6958 173° South 395 455 25,400 2,200 Climbing Washington Center
Tue 08:40:43 PM 38.2392 -76.6836 175° South 419 482 27,300 1,800 Climbing Washington Center
Tue 08:41:43 PM 38.1142 -76.6658 174° South 441 507 29,000 1,650 Climbing Washington Center
Tue 08:42:43 PM 37.9808 -76.6481 174° South 462 532 30,600 1,700 Climbing Washington Center
Tue 08:43:43 PM 37.8497 -76.6333 175° South 469 540 32,400 1,950 Climbing Washington Center
Tue 08:44:43 PM 37.7264 -76.6683 193° South 458 527 34,500 1,900 Climbing Washington Center
Tue 08:45:43 PM 37.6069 -76.7139 197° South 463 533 36,200 1,750 Climbing Washington Center
Tue 08:46:43 PM 37.4897 -76.7564 196° South 457 526 38,000 900 Climbing Washington Center
Tue 08:47:43 PM 37.3725 -76.7992 196° South 444 511 38,000  Level Washington Center
Tue 08:48:43 PM 37.2553 -76.8494 199° South 444 511 38,000  Level Washington Center
Tue 08:49:43 PM 37.1381 -76.8867 194° South 439 505 38,000  Level Washington Center
Tue 08:50:43 PM 37.0247 -76.9317 198° South 439 505 38,000  Level Washington Center
Tue 08:51:43 PM 36.9097 -76.9739 196° South 439 505 38,000  Level Washington Center
Tue 08:52:43 PM 36.7922 -77.0183 197° South 439 505 38,000  Level Washington Center
Tue 08:53:43 PM 36.6769 -77.0578 195° South 439 505 38,000  Level Washington Center
Tue 08:54:43 PM 36.5617 -77.0994 196° South 439 505 38,000  Level Washington Center
Tue 08:55:43 PM 36.4506 -77.1414 197° South 434 499 38,000  Level Washington Center
Tue 08:56:43 PM 36.3333 -77.1803 195° South 434 499 38,000  Level Washington Center
Tue 08:57:43 PM 36.2200 -77.2244 197° South 434 499 38,000  Level Washington Center
Tue 08:58:43 PM 36.1111 -77.2658 197° South 428 493 38,000  Level Washington Center
Tue 08:59:43 PM 35.9936 -77.3044 195° South 423 487 38,000  Level Washington Center
Tue 09:00:43 PM 35.8761 -77.3453 196° South 423 487 38,000  Level Washington Center
Tue 09:01:43 PM 35.7631 -77.3839 195° South 423 487 38,000  Level Washington Center
Tue 09:02:43 PM 35.6456 -77.4272 197° South 429 494 38,000  Level Washington Center
Tue 09:03:43 PM 35.5281 -77.4678 196° South 434 499 38,000  Level Washington Center
Tue 09:04:43 PM 35.4125 -77.5061 195° South 439 505 38,000  Level Washington Center
Tue 09:05:43 PM 35.2950 -77.5464 196° South 439 505 38,000  Level Washington Center
Tue 09:06:43 PM 35.1756 -77.5894 196° South 439 505 38,000  Level Washington Center
Tue 09:07:43 PM 35.0536 -77.6319 196° South 439 505 38,000  Level Washington Center
Tue 09:08:43 PM 34.9383 -77.6722 196° South 433 498 38,000  Level Washington Center
Tue 09:09:43 PM 34.8439 -77.7025 195° South 438 504 38,000  Level Washington Center
Tue 09:10:43 PM 34.7050 -77.7597 199° South 438 504 38,000  Level Washington Center
Tue 09:11:43 PM 34.5897 -77.7969 195° South 438 504 38,000  Level Washington Center
Tue 09:12:43 PM 34.4700 -77.8367 195° South 438 504 38,000  Level Washington Center
Tue 09:15:03 PM 34.1956 -77.9244 195° South 444 511 38,000  Level Jacksonville Center
Tue 09:16:03 PM 34.0858 -77.9483 190° South 457 526 38,000  Level Jacksonville Center
Tue 09:17:03 PM 33.9664 -77.9875 195° South 446 513 38,000  Level Jacksonville Center
Tue 09:18:03 PM 33.8467 -78.0217 193° South 446 513 38,000  Level Jacksonville Center
Tue 09:19:03 PM 33.7289 -78.0508 192° South 446 513 38,000  Level Jacksonville Center
Tue 09:20:03 PM 33.5950 -78.0931 195° South 451 519 38,000  Level Jacksonville Center
Tue 09:21:03 PM 33.4772 -78.1292 194° South 445 512 38,000  Level Jacksonville Center
Tue 09:22:03 PM 33.3594 -78.1603 192° South 445 512 38,000  Level Jacksonville Center
Tue 09:23:03 PM 33.2397 -78.1942 193° South 445 512 38,000  Level Jacksonville Center
Tue 09:24:03 PM 33.1222 -78.2275 193° South 445 512 38,000  Level Jacksonville Center
Tue 09:25:03 PM 33.0064 -78.2583 193° South 445 512 38,000  Level Jacksonville Center
Tue 09:26:03 PM 32.8864 -78.2917 193° South 445 512 38,000  Level Jacksonville Center
Tue 09:27:03 PM 32.7731 -78.3272 195° South 440 506 38,000  Level Jacksonville Center
Tue 09:28:03 PM 32.6531 -78.3553 191° South 440 506 38,000  Level Jacksonville Center
Tue 09:29:03 PM 32.5353 -78.3933 195° South 440 506 38,000  Level Jacksonville Center
Tue 09:30:03 PM 32.4175 -78.4261 193° South 440 506 38,000  Level Jacksonville Center
Tue 09:31:03 PM 32.2978 -78.4617 194° South 440 506 38,000  Level Jacksonville Center
Tue 09:32:03 PM 32.1819 -78.4942 193° South 440 506 38,000  Level Jacksonville Center
Tue 09:33:03 PM 32.0642 -78.5292 194° South 434 499 38,000  Level Jacksonville Center
Tue 09:34:03 PM 31.9464 -78.5642 194° South 434 499 38,000  Level Jacksonville Center
Tue 09:35:03 PM 31.8556 -78.5903 194° South 439 505 38,000  Level Jacksonville Center
Tue 09:36:03 PM 31.7272 -78.6258 193° South 433 498 38,000  Level Jacksonville Center
Tue 09:37:03 PM 31.6094 -78.6628 195° South 433 498 38,000  Level Jacksonville Center
Tue 09:38:04 PM 31.4958 -78.6947 193° South 428 493 38,000  Level Jacksonville Center
Tue 09:39:03 PM 31.3806 -78.7414 199° South 428 493 38,000  Level Jacksonville Center
Tue 09:40:03 PM 31.2650 -78.7828 197° South 433 498 38,000  Level Jacksonville Center
Tue 09:41:04 PM 31.1494 -78.8292 199° South 433 498 38,000  Level Jacksonville Center
Tue 09:42:03 PM 31.0233 -78.8711 196° South 438 504 38,000  Level Jacksonville Center
Tue 09:44:08 PM 30.8006 -78.9556 198° South 436 502 38,000  Level Miami Center
Tue 09:45:08 PM 30.6872 -79.0086 202° Southwest 436 502 38,000  Level Miami Center
Tue 09:46:08 PM 30.5758 -79.0642 203° Southwest 436 502 38,000  Level Miami Center
Tue 09:47:08 PM 30.4644 -79.1222 204° Southwest 436 502 38,000  Level Miami Center
Tue 09:48:08 PM 30.3594 -79.1753 204° Southwest 436 502 38,000  Level Miami Center
Tue 09:49:08 PM 30.2503 -79.2303 204° Southwest 436 502 38,000  Level Miami Center
Tue 09:50:08 PM 30.1431 -79.2833 203° Southwest 431 496 38,000  Level Miami Center
Tue 09:51:08 PM 30.0336 -79.3383 204° Southwest 431 496 38,000  Level Miami Center
Tue 09:52:08 PM 29.9242 -79.3931 203° Southwest 420 483 38,000  Level Miami Center
Tue 09:53:08 PM 29.8147 -79.4481 204° Southwest 425 489 38,000  Level Miami Center
Tue 09:54:08 PM 29.6947 -79.5119 205° Southwest 425 489 38,000  Level Miami Center
Tue 09:55:08 PM 29.5853 -79.5689 204° Southwest 430 495 38,000  Level Miami Center
Tue 09:56:08 PM 29.4736 -79.6258 204° Southwest 430 495 38,000 -300 Level Miami Center
Tue 09:57:08 PM 29.3600 -79.6822 203° Southwest 437 503 37,400 -800 Descending Miami Center
Tue 09:58:08 PM 29.2461 -79.7364 203° Southwest 444 511 36,400 -1,000 Descending Miami Center
Tue 09:59:08 PM 29.1325 -79.7883 202° Southwest 444 511 35,400 -950 Descending Miami Center
Tue 10:00:08 PM 29.0250 -79.8447 205° Southwest 444 511 34,500 -900 Descending Miami Center
Tue 10:01:08 PM 28.9069 -79.8983 202° Southwest 446 513 33,600 -950 Descending Miami Center
Tue 10:02:08 PM 28.7953 -79.9569 205° Southwest 446 513 32,600 -950 Descending Miami Center
Tue 10:03:08 PM 28.6814 -80.0106 202° Southwest 441 507 31,700 -950 Descending Miami Center
Tue 10:04:08 PM 28.5675 -80.0664 203° Southwest 441 507 30,700 -836 Descending Miami Center
Tue 10:05:10 PM 28.4514 -80.1197 202° Southwest 446 513 30,000 -350 Descending Miami Center
Tue 10:06:08 PM 28.3481 -80.1708 204° Southwest 451 519 30,000  Level Miami Center
Tue 10:07:09 PM 28.2297 -80.2264 202° Southwest 451 519 30,000 -98 Level Miami Center
Tue 10:08:10 PM 28.1031 -80.2886 203° Southwest 451 519 29,800 -550 Descending Miami Center
Tue 10:09:09 PM 27.9850 -80.3436 202° Southwest 451 519 28,900 -1,068 Descending Miami Center
Tue 10:10:08 PM 27.8686 -80.4011 204° Southwest 456 525 27,700 -2,132 Descending Miami Center
Tue 10:11:10 PM 27.7483 -80.4561 202° Southwest 464 534 24,600 -2,331 Descending Miami Center
Tue 10:12:09 PM 27.6553 -80.5094 207° Southwest 457 526 23,000 -1,271 Descending Miami Center
Tue 10:13:08 PM 27.5672 -80.6028 223° Southwest 435 501 22,100 -958 Descending Miami Center
Tue 10:14:08 PM 27.5142 -80.7181 243° Southwest 417 480 21,100 -1,091 Descending Miami Center
Tue 10:15:09 PM 27.4831 -80.8575 256° West 406 467 19,900 -1,091 Descending Miami Center
Tue 10:16:09 PM 27.4528 -80.9781 254° West 411 473 18,900 -950 Descending Miami Center
Tue 10:17:09 PM 27.4286 -81.0872 256° West 411 473 18,000 -850 Descending Miami Center
Tue 10:18:09 PM 27.3978 -81.2075 254° West 406 467 17,200 -958 Descending Miami Center
Tue 10:19:08 PM 27.3219 -81.3028 228° Southwest 385 443 16,100 -1,000 Descending Miami Center
Tue 10:20:09 PM 27.2242 -81.3553 206° Southwest 380 437 15,200 -1,388 Descending Miami Center
Tue 10:21:09 PM 27.1286 -81.4144 209° Southwest 391 450 13,300 -2,300 Descending Miami Center
Tue 10:22:09 PM 27.0369 -81.4692 208° Southwest 389 448 10,600 -1,664 Descending Miami Center
Tue 10:23:08 PM 26.9478 -81.4492 169° South 322 371 10,000 -298 Descending Miami Center
Tue 10:24:10 PM 26.8719 -81.4114 156° South 303 349 10,000  Level Miami Center
Tue 10:25:08 PM 26.7889 -81.3919 168° South 303 349 10,000 -203 Level Miami Center
Tue 10:26:08 PM 26.7117 -81.3958 183° South 303 349 9,600 -700 Descending Miami Center
Tue 10:27:08 PM 26.6436 -81.4303 204° Southwest 292 336 8,600 -1,041 Descending Miami Center
Tue 10:28:09 PM 26.5911 -81.5119 234° Southwest 282 325 7,500 -1,041 Descending Miami Center
Tue 10:29:09 PM 26.5428 -81.5819 232° Southwest 293 337 6,500 -1,000 Descending Miami Center
Tue 10:31:00 PM 26.5333 -81.7500 252° West  Level FlightAware Approximate
Tue 10:38:00 PM 26.5362 -81.7552 252° West  Level Estimated
Tue 10:39:00 PM 26.5333 -81.7500 252° West  Level FlightAware Approximate
Tue 10:40:00 PM 26.5362 -81.7552 252° West  Level Estimated
Tue 10:41:00 PM 26.5333 -81.7500 252° West  Level FlightAware Approximate
Tue 10:42:00 PM 26.5362 -81.7552 252° West  Level Estimated
Tue 10:43:00 PM 26.5333 -81.7500 252° West  Level FlightAware Approximate
Tue 10:44:00 PM 26.5362 -81.7552 252° West  Level Estimated
Tue 10:45:00 PM 26.5333 -81.7500 252° West  Level FlightAware Approximate
Tue 10:46:00 PM 26.5362 -81.7552 252° West  Level Estimated
Tue 10:47:00 PM 26.5333 -81.7500 252° West  Level FlightAware Approximate
Tue 10:48:00 PM 26.5362 -81.7552 252° West  Level Estimated

Login

Don't have an account? Register now (free) for customized features, flight alerts, and more!